Time;durP1;ratioP1;P1;durP2;ratioP2;P2;SDS_P1;SDS_P2;PMS_P1;PMS_P2;Temp;Humidity;BMP_temperature;BMP_pressure;BME280_temperature;BME280_humidity;BME280_pressure;Samples;Min_cycle;Max_cycle;Signal;HPM_P1;HPM_P2
2023/08/29 00:00:57;;;;;;;7.30;6.80;;;;;;;;;;5052690;28;20491;-64
2023/08/29 00:03:27;;;;;;;7.10;6.20;;;;;;;;;;5052747;28;20418;-64
2023/08/29 00:05:59;;;;;;;6.87;6.40;;;;;;;;;;5052901;28;20459;-64
2023/08/29 00:08:25;;;;;;;6.57;6.17;;;;;;;;;;5052571;28;20428;-64
2023/08/29 00:11:01;;;;;;;14.03;6.33;;;;;;;;;;5052456;28;20932;-64
2023/08/29 00:13:30;;;;;;;6.47;6.07;;;;;;;;;;5052888;28;20493;-64
2023/08/29 00:15:57;;;;;;;6.23;5.77;;;;;;;;;;5052245;28;20469;-64
2023/08/29 00:18:23;;;;;;;6.30;5.80;;;;;;;;;;5052625;28;20767;-64
2023/08/29 00:20:51;;;;;;;6.10;5.53;;;;;;;;;;5052432;28;20439;-64
2023/08/29 00:23:17;;;;;;;5.80;5.50;;;;;;;;;;5051222;28;20413;-64
2023/08/29 00:25:48;;;;;;;5.73;5.43;;;;;;;;;;5052315;28;20445;-64
2023/08/29 00:28:14;;;;;;;6.47;6.00;;;;;;;;;;5052364;28;20500;-64
2023/08/29 00:30:40;;;;;;;6.83;6.33;;;;;;;;;;5052180;28;20875;-64
2023/08/29 00:33:09;;;;;;;6.87;6.37;;;;;;;;;;5052460;28;20409;-64
2023/08/29 00:35:37;;;;;;;9.57;6.60;;;;;;;;;;5052304;28;20456;-64
2023/08/29 00:38:04;;;;;;;5.77;5.40;;;;;;;;;;5052377;28;20410;-64
2023/08/29 00:40:30;;;;;;;6.47;5.97;;;;;;;;;;5052293;28;20939;-64
2023/08/29 00:43:01;;;;;;;6.73;6.33;;;;;;;;;;5052246;28;20424;-64
2023/08/29 00:45:39;;;;;;;7.43;6.70;;;;;;;;;;5052237;28;20422;-64
2023/08/29 00:48:08;;;;;;;7.27;6.83;;;;;;;;;;5051580;28;20847;-64
2023/08/29 00:50:35;;;;;;;8.17;7.67;;;;;;;;;;5052201;28;20459;-64
2023/08/29 00:53:03;;;;;;;10.83;8.47;;;;;;;;;;5052779;28;20460;-64
2023/08/29 00:55:29;;;;;;;8.60;8.10;;;;;;;;;;5056071;28;20464;-64
2023/08/29 00:58:01;;;;;;;9.70;9.10;;;;;;;;;;5056102;28;20922;-64
2023/08/29 01:00:33;;;;;;;10.40;9.70;;;;;;;;;;5056061;28;20437;-64
2023/08/29 01:02:59;;;;;;;14.53;11.17;;;;;;;;;;5054635;28;20420;-64
2023/08/29 01:05:25;;;;;;;11.93;10.87;;;;;;;;;;5055961;28;20420;-64
2023/08/29 01:07:56;;;;;;;11.33;10.43;;;;;;;;;;5055837;28;20413;-64
2023/08/29 01:10:25;;;;;;;12.60;11.70;;;;;;;;;;5055908;28;20452;-64
2023/08/29 01:13:09;;;;;;;12.67;11.60;;;;;;;;;;5055797;28;20428;-64
2023/08/29 01:15:36;;;;;;;13.83;12.33;;;;;;;;;;5055572;28;20503;-64
2023/08/29 01:18:06;;;;;;;13.17;12.07;;;;;;;;;;5055689;28;20499;-64
2023/08/29 01:20:33;;;;;;;13.57;12.37;;;;;;;;;;5055599;28;20433;-65
2023/08/29 01:23:21;;;;;;;18.63;12.80;;;;;;;;;;5055531;28;20409;-65
2023/08/29 01:25:47;;;;;;;14.70;13.30;;;;;;;;;;5055501;28;20937;-65
2023/08/29 01:28:13;;;;;;;13.23;11.83;;;;;;;;;;5055847;28;20412;-65
2023/08/29 01:30:40;;;;;;;14.83;13.30;;;;;;;;;;5055495;28;20439;-65
2023/08/29 01:33:07;;;;;;;13.63;12.40;;;;;;;;;;5055483;28;20804;-65
2023/08/29 01:35:36;;;;;;;14.03;12.93;;;;;;;;;;5055246;28;20475;-65
2023/08/29 01:38:02;;;;;;;17.33;13.10;;;;;;;;;;5055303;28;20482;-65
2023/08/29 01:40:29;;;;;;;13.30;12.17;;;;;;;;;;5055257;28;20817;-64
2023/08/29 01:42:55;;;;;;;14.13;12.83;;;;;;;;;;5055311;28;20421;-64
2023/08/29 01:45:20;;;;;;;16.90;12.33;;;;;;;;;;5055167;28;20939;-64
2023/08/29 01:47:46;;;;;;;12.90;11.80;;;;;;;;;;5055128;28;20469;-64
2023/08/29 01:50:13;;;;;;;17.83;12.50;;;;;;;;;;5055155;28;20399;-64
2023/08/29 01:52:41;;;;;;;12.70;11.60;;;;;;;;;;5055193;28;20911;-64
2023/08/29 01:55:07;;;;;;;12.53;11.43;;;;;;;;;;5054930;28;20409;-64
2023/08/29 01:57:37;;;;;;;12.93;11.83;;;;;;;;;;5055074;28;20412;-64
2023/08/29 02:00:04;;;;;;;12.00;11.00;;;;;;;;;;5054929;28;20961;-64
2023/08/29 02:02:30;;;;;;;11.70;10.60;;;;;;;;;;5053737;28;20434;-64
2023/08/29 02:04:56;;;;;;;12.00;10.90;;;;;;;;;;5054341;28;20413;-65
2023/08/29 02:07:22;;;;;;;14.40;13.00;;;;;;;;;;5054780;28;20422;-65
2023/08/29 02:09:48;;;;;;;15.00;13.50;;;;;;;;;;5054815;28;20514;-64
2023/08/29 02:12:14;;;;;;;13.90;12.57;;;;;;;;;;5054624;28;20529;-64
2023/08/29 02:14:40;;;;;;;12.70;11.30;;;;;;;;;;5054552;28;20440;-65
2023/08/29 02:17:08;;;;;;;13.17;12.07;;;;;;;;;;5054387;28;20472;-65
2023/08/29 02:19:34;;;;;;;14.73;12.37;;;;;;;;;;5054544;28;20436;-65
2023/08/29 02:22:02;;;;;;;17.13;13.10;;;;;;;;;;5054467;28;20891;-65
2023/08/29 02:24:30;;;;;;;20.13;13.10;;;;;;;;;;5054504;28;20418;-65
2023/08/29 02:26:56;;;;;;;19.30;12.30;;;;;;;;;;5054427;28;20873;-65
2023/08/29 02:29:22;;;;;;;13.87;12.70;;;;;;;;;;5054253;28;20504;-65
2023/08/29 02:31:48;;;;;;;14.40;13.20;;;;;;;;;;5054385;28;20808;-65
2023/08/29 02:34:14;;;;;;;14.40;11.57;;;;;;;;;;5054309;28;20417;-65
2023/08/29 02:36:40;;;;;;;12.00;10.77;;;;;;;;;;5054212;28;20476;-65
2023/08/29 02:39:07;;;;;;;11.70;10.50;;;;;;;;;;5054221;28;20410;-65
2023/08/29 02:41:35;;;;;;;18.53;11.97;;;;;;;;;;5052894;28;20452;-65
2023/08/29 02:44:01;;;;;;;12.40;11.17;;;;;;;;;;5054179;28;20478;-65
2023/08/29 02:46:31;;;;;;;13.50;12.10;;;;;;;;;;5053979;28;20835;-65
2023/08/29 02:48:57;;;;;;;12.47;11.47;;;;;;;;;;5053946;28;20998;-65
2023/08/29 02:51:26;;;;;;;12.93;10.30;;;;;;;;;;5053921;28;20450;-65
2023/08/29 02:53:52;;;;;;;11.60;10.70;;;;;;;;;;5053910;28;20432;-65
2023/08/29 02:56:20;;;;;;;10.50;9.50;;;;;;;;;;5053596;28;20472;-65
2023/08/29 02:58:46;;;;;;;11.60;10.60;;;;;;;;;;5053807;28;20907;-65
2023/08/29 03:01:15;;;;;;;10.30;9.40;;;;;;;;;;5053714;28;20429;-65
2023/08/29 03:03:41;;;;;;;9.90;9.10;;;;;;;;;;5053871;28;20461;-65
2023/08/29 03:06:10;;;;;;;12.20;11.10;;;;;;;;;;5053614;28;20813;-65
2023/08/29 03:08:36;;;;;;;10.87;9.97;;;;;;;;;;5053744;28;20406;-65
2023/08/29 03:11:05;;;;;;;11.23;10.20;;;;;;;;;;5053436;28;20428;-65
2023/08/29 03:13:31;;;;;;;10.17;9.37;;;;;;;;;;5053520;28;20489;-65
2023/08/29 03:16:00;;;;;;;10.43;9.60;;;;;;;;;;5052544;28;20526;-65
2023/08/29 03:18:27;;;;;;;11.63;10.70;;;;;;;;;;5053395;28;20768;-65
2023/08/29 03:20:53;;;;;;;12.53;9.80;;;;;;;;;;5053447;28;20413;-65
2023/08/29 03:23:19;;;;;;;15.33;10.57;;;;;;;;;;5053187;28;20414;-65
2023/08/29 03:25:48;;;;;;;10.53;9.50;;;;;;;;;;5053387;28;20421;-65
2023/08/29 03:28:13;;;;;;;11.53;10.57;;;;;;;;;;5053283;28;20433;-65
2023/08/29 03:30:39;;;;;;;11.07;10.10;;;;;;;;;;5053227;28;20809;-65
2023/08/29 03:33:05;;;;;;;12.13;11.13;;;;;;;;;;5053136;28;20438;-65
2023/08/29 03:35:31;;;;;;;16.20;9.60;;;;;;;;;;5052943;28;20470;-65
2023/08/29 03:37:58;;;;;;;13.50;11.20;;;;;;;;;;5051927;28;20921;-65
2023/08/29 03:40:24;;;;;;;11.17;10.17;;;;;;;;;;5053050;28;20500;-65
2023/08/29 03:42:53;;;;;;;12.53;11.43;;;;;;;;;;5053043;28;20530;-65
2023/08/29 03:45:19;;;;;;;12.00;10.80;;;;;;;;;;5053024;28;20888;-65
2023/08/29 03:47:45;;;;;;;12.33;10.97;;;;;;;;;;5052930;28;20433;-65
2023/08/29 03:50:11;;;;;;;12.80;11.67;;;;;;;;;;5052847;28;20979;-65
2023/08/29 03:52:37;;;;;;;10.90;9.80;;;;;;;;;;5052726;28;20494;-65
2023/08/29 03:55:04;;;;;;;11.30;10.17;;;;;;;;;;5052733;28;20419;-65
2023/08/29 03:57:30;;;;;;;14.63;9.93;;;;;;;;;;5052891;28;20476;-65
2023/08/29 03:59:58;;;;;;;11.93;10.70;;;;;;;;;;5052685;28;20476;-65
2023/08/29 04:02:24;;;;;;;9.83;8.93;;;;;;;;;;5052624;28;20445;-65
2023/08/29 04:04:52;;;;;;;10.53;9.47;;;;;;;;;;5052620;28;20412;-65
2023/08/29 04:07:17;;;;;;;9.07;8.17;;;;;;;;;;5052643;28;20444;-65
2023/08/29 04:09:43;;;;;;;9.17;8.40;;;;;;;;;;5052605;28;20411;-65
2023/08/29 04:12:10;;;;;;;11.40;9.10;;;;;;;;;;5052426;28;20480;-65
2023/08/29 04:14:36;;;;;;;9.20;8.50;;;;;;;;;;5052433;28;20547;-65
2023/08/29 04:17:03;;;;;;;9.90;9.10;;;;;;;;;;5052396;28;21009;-65
2023/08/29 04:19:29;;;;;;;8.77;8.17;;;;;;;;;;5052441;28;20806;-65
2023/08/29 04:21:56;;;;;;;9.00;8.23;;;;;;;;;;5052502;28;20450;-65
2023/08/29 04:24:22;;;;;;;9.00;8.40;;;;;;;;;;5052435;28;20402;-65
2023/08/29 04:26:48;;;;;;;8.87;8.07;;;;;;;;;;5052088;28;20488;-65
2023/08/29 04:29:14;;;;;;;12.37;7.67;;;;;;;;;;5052189;28;20508;-65
2023/08/29 04:31:40;;;;;;;10.23;7.17;;;;;;;;;;5052318;28;20412;-65
2023/08/29 04:34:08;;;;;;;6.87;6.47;;;;;;;;;;5052355;28;20911;-65
2023/08/29 04:36:34;;;;;;;8.07;6.97;;;;;;;;;;5052202;28;20530;-65
2023/08/29 04:39:00;;;;;;;7.30;6.80;;;;;;;;;;5052240;28;20412;-65
2023/08/29 04:41:26;;;;;;;8.50;7.93;;;;;;;;;;5052270;28;20877;-65
2023/08/29 04:43:52;;;;;;;8.20;7.50;;;;;;;;;;5052254;28;20414;-65
2023/08/29 04:46:18;;;;;;;8.17;7.67;;;;;;;;;;5052288;28;20919;-65
2023/08/29 04:48:44;;;;;;;8.50;7.70;;;;;;;;;;5050811;28;20837;-65
2023/08/29 04:51:10;;;;;;;7.87;7.27;;;;;;;;;;5052199;28;20434;-65
2023/08/29 04:53:38;;;;;;;8.73;8.07;;;;;;;;;;5052095;28;20417;-65
2023/08/29 04:56:07;;;;;;;11.77;8.93;;;;;;;;;;5052170;28;20993;-65
2023/08/29 04:58:33;;;;;;;9.17;8.60;;;;;;;;;;5052047;28;20928;-65
2023/08/29 05:00:59;;;;;;;7.37;6.80;;;;;;;;;;5052049;28;20428;-65
2023/08/29 05:03:25;;;;;;;8.90;7.03;;;;;;;;;;5051931;28;20413;-65
2023/08/29 05:05:52;;;;;;;7.87;7.13;;;;;;;;;;5052050;28;20916;-65
2023/08/29 05:08:18;;;;;;;8.50;7.80;;;;;;;;;;5052006;28;20444;-65
2023/08/29 05:10:44;;;;;;;9.57;7.73;;;;;;;;;;5050614;28;20510;-65
2023/08/29 05:13:13;;;;;;;8.70;8.03;;;;;;;;;;5051926;28;20784;-65
2023/08/29 05:15:39;;;;;;;8.33;7.53;;;;;;;;;;5051721;28;20467;-65
2023/08/29 05:18:05;;;;;;;7.80;7.20;;;;;;;;;;5051861;28;20422;-65
2023/08/29 05:20:31;;;;;;;8.30;7.70;;;;;;;;;;5051922;28;20847;-64
2023/08/29 05:22:59;;;;;;;9.27;8.47;;;;;;;;;;5051890;28;20443;-64
2023/08/29 05:25:25;;;;;;;8.73;7.90;;;;;;;;;;5052251;28;20832;-64
2023/08/29 05:27:54;;;;;;;8.50;7.80;;;;;;;;;;5051735;28;20480;-64
2023/08/29 05:30:22;;;;;;;13.57;8.60;;;;;;;;;;5051789;28;20878;-65
2023/08/29 05:32:48;;;;;;;8.50;7.87;;;;;;;;;;5051909;28;20512;-65
2023/08/29 05:35:19;;;;;;;8.10;7.63;;;;;;;;;;5051689;28;20855;-65
2023/08/29 05:37:44;;;;;;;8.50;7.90;;;;;;;;;;5051751;28;20444;-65
2023/08/29 05:40:11;;;;;;;8.37;7.77;;;;;;;;;;5053763;28;20911;-65
2023/08/29 05:42:39;;;;;;;7.93;7.47;;;;;;;;;;5053813;28;20462;-65
2023/08/29 05:45:05;;;;;;;9.20;8.20;;;;;;;;;;5055314;28;20401;-65
2023/08/29 05:47:36;;;;;;;7.93;7.47;;;;;;;;;;5055247;28;20418;-65
2023/08/29 05:50:02;;;;;;;8.03;7.23;;;;;;;;;;5055252;28;20417;-65
2023/08/29 05:52:28;;;;;;;8.80;8.00;;;;;;;;;;5055113;28;20912;-65
2023/08/29 05:54:54;;;;;;;8.27;7.80;;;;;;;;;;5055110;28;20394;-65
2023/08/29 05:57:20;;;;;;;7.90;7.43;;;;;;;;;;5054798;28;20473;-65
2023/08/29 05:59:46;;;;;;;6.37;5.87;;;;;;;;;;5054696;28;20425;-65
2023/08/29 06:02:14;;;;;;;6.00;5.70;;;;;;;;;;5054678;28;20405;-65
2023/08/29 06:04:42;;;;;;;7.00;6.47;;;;;;;;;;5054944;28;20415;-65
2023/08/29 06:07:09;;;;;;;5.77;5.40;;;;;;;;;;5055017;28;20924;-65
2023/08/29 06:09:37;;;;;;;5.43;5.27;;;;;;;;;;5054894;28;20448;-65
2023/08/29 06:12:06;;;;;;;6.13;5.60;;;;;;;;;;5054685;28;20466;-65
2023/08/29 06:14:34;;;;;;;5.97;5.67;;;;;;;;;;5054576;28;20479;-65
2023/08/29 06:17:00;;;;;;;6.13;5.83;;;;;;;;;;5054594;28;20460;-65
2023/08/29 06:19:26;;;;;;;7.10;5.20;;;;;;;;;;5053486;28;20425;-65
2023/08/29 06:21:52;;;;;;;6.37;5.80;;;;;;;;;;5054598;28;20409;-65
2023/08/29 06:24:20;;;;;;;5.30;4.90;;;;;;;;;;5054481;28;20428;-65
2023/08/29 06:26:46;;;;;;;5.00;4.90;;;;;;;;;;5054279;28;20445;-65
2023/08/29 06:29:12;;;;;;;5.80;5.00;;;;;;;;;;5054453;28;20432;-65
2023/08/29 06:31:40;;;;;;;5.77;5.33;;;;;;;;;;5054399;28;20797;-65
2023/08/29 06:34:06;;;;;;;5.80;5.40;;;;;;;;;;5054222;28;20493;-65
2023/08/29 06:36:32;;;;;;;5.43;5.30;;;;;;;;;;5054259;28;20561;-65
2023/08/29 06:39:01;;;;;;;9.10;5.53;;;;;;;;;;5054307;28;20571;-65
2023/08/29 06:41:29;;;;;;;5.50;5.30;;;;;;;;;;5054316;28;20484;-64
2023/08/29 06:43:55;;;;;;;4.90;4.70;;;;;;;;;;5054020;28;20433;-64
2023/08/29 06:46:21;;;;;;;5.07;4.97;;;;;;;;;;5053588;28;20424;-64
2023/08/29 06:48:47;;;;;;;5.57;5.37;;;;;;;;;;5054022;28;20432;-64
2023/08/29 06:51:13;;;;;;;5.63;5.23;;;;;;;;;;5053885;28;20990;-64
2023/08/29 06:53:41;;;;;;;6.20;5.73;;;;;;;;;;5054010;28;20438;-64
2023/08/29 06:56:07;;;;;;;6.10;5.77;;;;;;;;;;5053804;28;20481;-64
2023/08/29 06:58:33;;;;;;;5.47;5.37;;;;;;;;;;5053850;28;20430;-64
2023/08/29 07:00:59;;;;;;;7.77;6.70;;;;;;;;;;5053858;28;20927;-64
2023/08/29 07:03:27;;;;;;;6.10;5.70;;;;;;;;;;5054023;28;20630;-64
2023/08/29 07:05:56;;;;;;;7.10;5.77;;;;;;;;;;5053624;28;20771;-64
2023/08/29 07:08:22;;;;;;;5.87;5.63;;;;;;;;;;5053963;28;20450;-64
2023/08/29 07:10:48;;;;;;;6.20;5.80;;;;;;;;;;5053539;28;20469;-64
2023/08/29 07:13:17;;;;;;;5.60;5.30;;;;;;;;;;5053457;28;20465;-64
2023/08/29 07:15:43;;;;;;;6.60;6.30;;;;;;;;;;5053449;28;20812;-64
2023/08/29 07:18:09;;;;;;;6.23;5.77;;;;;;;;;;5053389;28;20481;-64
2023/08/29 07:20:37;;;;;;;6.10;5.90;;;;;;;;;;5053564;28;20421;-64
2023/08/29 07:23:03;;;;;;;6.27;5.87;;;;;;;;;;5053279;28;20405;-64
2023/08/29 07:25:41;;;;;;;6.90;6.27;;;;;;;;;;5053475;28;20405;-64
2023/08/29 07:28:08;;;;;;;7.10;6.80;;;;;;;;;;5053203;28;20417;-64
2023/08/29 07:30:34;;;;;;;7.13;6.40;;;;;;;;;;5052086;28;20967;-64
2023/08/29 07:33:03;;;;;;;6.87;6.57;;;;;;;;;;5053057;28;20418;-64
2023/08/29 07:35:29;;;;;;;9.17;6.50;;;;;;;;;;5053065;28;20426;-64
2023/08/29 07:38:00;;;;;;;7.43;7.03;;;;;;;;;;5052955;28;20488;-64
2023/08/29 07:40:26;;;;;;;7.37;6.97;;;;;;;;;;5053117;28;20409;-64
2023/08/29 07:42:52;;;;;;;7.07;6.57;;;;;;;;;;5052996;28;20869;-64
2023/08/29 07:45:18;;;;;;;7.40;6.77;;;;;;;;;;5053024;28;20492;-64
2023/08/29 07:47:44;;;;;;;7.80;7.30;;;;;;;;;;5051805;28;20417;-64
2023/08/29 07:50:10;;;;;;;8.63;7.93;;;;;;;;;;5052738;28;20421;-64
2023/08/29 07:52:38;;;;;;;7.20;6.70;;;;;;;;;;5052850;28;20516;-64
2023/08/29 07:55:05;;;;;;;8.03;7.40;;;;;;;;;;5052776;28;20428;-64
2023/08/29 07:57:31;;;;;;;8.57;7.90;;;;;;;;;;5052893;28;20460;-64
2023/08/29 08:00:00;;;;;;;7.13;6.83;;;;;;;;;;5052891;28;20410;-64
2023/08/29 08:02:26;;;;;;;6.77;6.30;;;;;;;;;;5052252;28;20512;-64
2023/08/29 08:04:52;;;;;;;12.73;7.00;;;;;;;;;;5052758;28;20417;-64
2023/08/29 08:07:18;;;;;;;7.33;6.93;;;;;;;;;;5052655;28;20418;-64
2023/08/29 08:09:44;;;;;;;6.70;6.40;;;;;;;;;;5053042;28;20442;-64
2023/08/29 08:12:10;;;;;;;7.17;6.87;;;;;;;;;;5052796;28;20430;-64
2023/08/29 08:14:36;;;;;;;7.17;6.83;;;;;;;;;;5052573;28;20832;-64
2023/08/29 08:17:02;;;;;;;7.00;6.60;;;;;;;;;;5052484;28;20500;-64
2023/08/29 08:19:28;;;;;;;6.97;6.67;;;;;;;;;;5052397;28;20433;-64
2023/08/29 08:21:56;;;;;;;7.37;6.80;;;;;;;;;;5052447;28;20437;-64
2023/08/29 08:24:24;;;;;;;7.30;6.70;;;;;;;;;;5052348;28;20412;-64
2023/08/29 08:26:51;;;;;;;6.10;5.97;;;;;;;;;;5052407;28;20882;-64
2023/08/29 08:29:17;;;;;;;7.70;7.07;;;;;;;;;;5052388;28;20511;-64
2023/08/29 08:31:46;;;;;;;8.00;6.37;;;;;;;;;;5052395;28;20901;-64
2023/08/29 08:34:14;;;;;;;6.73;6.20;;;;;;;;;;5052253;28;21049;-64
2023/08/29 08:36:40;;;;;;;7.13;6.67;;;;;;;;;;5052118;28;20836;-64
2023/08/29 08:39:06;;;;;;;9.73;6.83;;;;;;;;;;5051142;28;20430;-64
2023/08/29 08:41:35;;;;;;;7.17;6.77;;;;;;;;;;5052133;28;20411;-64
2023/08/29 08:44:03;;;;;;;8.43;6.27;;;;;;;;;;5052168;28;20445;-64
2023/08/29 08:46:32;;;;;;;7.10;6.60;;;;;;;;;;5052103;28;20414;-64
2023/08/29 08:49:00;;;;;;;6.03;5.73;;;;;;;;;;5052221;28;20457;-64
2023/08/29 08:51:30;;;;;;;6.40;6.20;;;;;;;;;;5052168;28;20424;-64
2023/08/29 08:53:58;;;;;;;6.43;6.00;;;;;;;;;;5052406;28;20801;-64
2023/08/29 08:56:24;;;;;;;7.37;6.00;;;;;;;;;;5051952;28;20469;-64
2023/08/29 08:58:50;;;;;;;7.00;6.70;;;;;;;;;;5052257;28;20917;-64
2023/08/29 09:01:16;;;;;;;6.50;6.30;;;;;;;;;;5051989;28;20447;-64
2023/08/29 09:03:43;;;;;;;7.30;6.47;;;;;;;;;;5050851;28;20417;-64
2023/08/29 09:06:09;;;;;;;12.07;6.37;;;;;;;;;;5052153;28;20951;-64
2023/08/29 09:08:37;;;;;;;6.60;6.20;;;;;;;;;;5051897;28;20422;-64
2023/08/29 09:11:03;;;;;;;6.87;6.27;;;;;;;;;;5050588;28;20477;-64
2023/08/29 09:13:30;;;;;;;6.60;6.17;;;;;;;;;;5051824;28;20513;-64
2023/08/29 09:15:58;;;;;;;7.17;6.57;;;;;;;;;;5055066;28;20876;-64
2023/08/29 09:18:28;;;;;;;8.00;7.53;;;;;;;;;;5055509;28;20418;-64
2023/08/29 09:20:58;;;;;;;6.63;6.33;;;;;;;;;;5055732;28;20905;-64
2023/08/29 09:23:25;;;;;;;6.53;6.33;;;;;;;;;;5055614;28;20439;-64
2023/08/29 09:25:54;;;;;;;7.03;6.00;;;;;;;;;;5055618;28;20437;-64
2023/08/29 09:28:21;;;;;;;7.40;6.90;;;;;;;;;;5055574;28;20468;-64
2023/08/29 09:30:49;;;;;;;6.00;5.80;;;;;;;;;;5055530;28;20434;-64
2023/08/29 09:33:19;;;;;;;7.83;6.13;;;;;;;;;;5055588;28;20444;-64
2023/08/29 09:35:45;;;;;;;5.50;5.30;;;;;;;;;;5055261;28;20506;-64
2023/08/29 09:38:11;;;;;;;6.13;5.60;;;;;;;;;;5055412;28;20417;-64
2023/08/29 09:40:47;;;;;;;5.80;5.50;;;;;;;;;;5055168;28;20435;-64
2023/08/29 09:43:14;;;;;;;6.10;5.80;;;;;;;;;;5055318;28;20418;-64
2023/08/29 09:45:40;;;;;;;5.40;5.20;;;;;;;;;;5055110;28;20435;-65
2023/08/29 09:48:07;;;;;;;5.07;4.67;;;;;;;;;;5055295;28;20419;-65
2023/08/29 09:50:33;;;;;;;5.70;5.20;;;;;;;;;;5055006;28;20423;-65
2023/08/29 09:53:00;;;;;;;5.97;5.50;;;;;;;;;;5055277;28;20490;-65
2023/08/29 09:55:26;;;;;;;5.80;5.60;;;;;;;;;;5054923;28;20448;-64
2023/08/29 09:57:53;;;;;;;5.57;5.27;;;;;;;;;;5055082;28;20413;-65
2023/08/29 10:00:22;;;;;;;5.20;4.90;;;;;;;;;;5054969;28;20438;-65
2023/08/29 10:02:51;;;;;;;84.30;66.63;;;;;;;;;;5054728;28;20441;-65
2023/08/29 10:05:19;;;;;;;5.43;5.23;;;;;;;;;;5054810;28;20449;-64
2023/08/29 10:07:49;;;;;;;5.10;4.73;;;;;;;;;;5054766;28;20425;-65
2023/08/29 10:10:15;;;;;;;4.57;4.37;;;;;;;;;;5054831;28;20529;-65
2023/08/29 10:12:42;;;;;;;5.93;5.63;;;;;;;;;;5054765;28;20454;-64
2023/08/29 10:15:09;;;;;;;5.93;5.53;;;;;;;;;;5054567;28;20442;-64
2023/08/29 10:17:35;;;;;;;5.77;5.50;;;;;;;;;;5054575;28;20467;-64
2023/08/29 10:20:09;;;;;;;6.50;5.60;;;;;;;;;;5054539;28;20472;-65
2023/08/29 10:22:35;;;;;;;5.63;5.33;;;;;;;;;;5054496;28;20461;-65
2023/08/29 10:25:06;;;;;;;6.27;5.77;;;;;;;;;;5054072;28;20438;-65
2023/08/29 10:27:32;;;;;;;6.37;5.93;;;;;;;;;;5054336;28;20764;-65
2023/08/29 10:29:58;;;;;;;6.47;5.60;;;;;;;;;;5054459;28;20450;-64
2023/08/29 10:32:25;;;;;;;6.53;6.13;;;;;;;;;;5054442;28;20472;-64
2023/08/29 10:34:51;;;;;;;5.77;5.40;;;;;;;;;;5054324;28;20516;-64
2023/08/29 10:37:21;;;;;;;6.90;6.57;;;;;;;;;;5054300;28;20880;-65
2023/08/29 10:39:50;;;;;;;7.03;6.43;;;;;;;;;;5054180;28;20904;-65
2023/08/29 10:42:19;;;;;;;6.43;6.03;;;;;;;;;;5054184;28;20506;-65
2023/08/29 10:44:46;;;;;;;5.97;5.67;;;;;;;;;;5054121;28;20414;-65
2023/08/29 10:47:26;;;;;;;5.40;5.07;;;;;;;;;;5053991;28;20445;-65
2023/08/29 10:49:58;;;;;;;5.63;5.20;;;;;;;;;;5054052;28;20434;-65
2023/08/29 10:52:26;;;;;;;5.40;5.20;;;;;;;;;;5054144;28;20427;-65
2023/08/29 10:55:08;;;;;;;4.60;4.40;;;;;;;;;;5053749;28;20510;-65
2023/08/29 10:57:36;;;;;;;5.13;4.97;;;;;;;;;;5053827;28;20484;-64
2023/08/29 11:00:14;;;;;;;5.77;5.47;;;;;;;;;;5052503;28;20446;-64
2023/08/29 11:02:41;;;;;;;5.20;5.00;;;;;;;;;;5053677;28;20413;-64
2023/08/29 11:05:07;;;;;;;5.33;4.97;;;;;;;;;;5053787;28;20512;-64
2023/08/29 11:07:37;;;;;;;5.40;5.07;;;;;;;;;;5053720;28;20508;-64
2023/08/29 11:10:15;;;;;;;4.27;4.07;;;;;;;;;;5053757;28;20447;-65
2023/08/29 11:13:00;;;;;;;7.97;5.37;;;;;;;;;;5053738;28;20819;-64
2023/08/29 11:15:44;;;;;;;4.70;4.27;;;;;;;;;;5052059;28;20460;-64
2023/08/29 11:18:20;;;;;;;5.13;4.70;;;;;;;;;;5053556;28;20461;-64
2023/08/29 11:20:47;;;;;;;4.97;4.77;;;;;;;;;;5053328;28;20496;-64
2023/08/29 11:23:13;;;;;;;5.13;4.93;;;;;;;;;;5053429;28;20417;-64
2023/08/29 11:25:39;;;;;;;5.40;5.00;;;;;;;;;;5053183;28;20930;-64
2023/08/29 11:28:05;;;;;;;5.40;5.20;;;;;;;;;;5053249;28;20414;-64
2023/08/29 11:30:32;;;;;;;4.47;4.17;;;;;;;;;;5053165;28;20432;-64
2023/08/29 11:32:57;;;;;;;4.83;4.73;;;;;;;;;;5053191;28;20435;-64
2023/08/29 11:35:26;;;;;;;5.20;4.77;;;;;;;;;;5053154;28;20821;-65
2023/08/29 11:37:52;;;;;;;5.03;4.53;;;;;;;;;;5052265;28;20434;-64
2023/08/29 11:40:21;;;;;;;6.63;4.33;;;;;;;;;;5052912;28;20449;-65
2023/08/29 11:42:47;;;;;;;4.57;4.27;;;;;;;;;;5053290;28;20819;-65
2023/08/29 11:45:15;;;;;;;4.80;4.50;;;;;;;;;;5053051;28;20519;-64
2023/08/29 11:47:43;;;;;;;3.77;3.67;;;;;;;;;;5053150;28;20408;-64
2023/08/29 11:50:11;;;;;;;4.40;4.20;;;;;;;;;;5052889;28;20425;-64
2023/08/29 11:52:37;;;;;;;4.17;3.97;;;;;;;;;;5052892;28;20417;-65
2023/08/29 11:55:04;;;;;;;4.13;3.73;;;;;;;;;;5052797;28;20428;-65
2023/08/29 11:57:31;;;;;;;6.37;4.67;;;;;;;;;;5052888;28;20445;-65
2023/08/29 11:59:57;;;;;;;4.57;4.30;;;;;;;;;;5052656;28;20507;-65
2023/08/29 12:02:26;;;;;;;3.83;3.63;;;;;;;;;;5052955;28;20546;-65
2023/08/29 12:04:56;;;;;;;3.67;3.43;;;;;;;;;;5052469;28;20419;-65
2023/08/29 12:07:22;;;;;;;4.20;4.00;;;;;;;;;;5052698;28;20433;-65
2023/08/29 12:09:49;;;;;;;4.57;4.03;;;;;;;;;;5052677;28;20417;-65
2023/08/29 12:12:32;;;;;;;4.13;3.93;;;;;;;;;;5052588;28;20479;-65
2023/08/29 12:15:01;;;;;;;3.93;3.63;;;;;;;;;;5052234;28;20441;-65
2023/08/29 12:17:38;;;;;;;4.63;4.13;;;;;;;;;;5052497;28;20828;-65
2023/08/29 12:20:22;;;;;;;3.37;3.27;;;;;;;;;;5052757;28;20417;-65
2023/08/29 12:22:49;;;;;;;3.60;3.30;;;;;;;;;;5052531;28;20408;-64
2023/08/29 12:25:18;;;;;;;3.20;3.00;;;;;;;;;;5052333;28;20461;-64
2023/08/29 12:27:44;;;;;;;3.80;3.50;;;;;;;;;;5052603;28;20398;-64
2023/08/29 12:30:14;;;;;;;4.47;4.27;;;;;;;;;;5052263;28;20421;-65
2023/08/29 12:32:40;;;;;;;8.67;4.70;;;;;;;;;;5052298;28;20412;-65
2023/08/29 12:35:06;;;;;;;3.73;3.60;;;;;;;;;;5052177;28;20432;-65
2023/08/29 12:37:32;;;;;;;3.70;3.60;;;;;;;;;;5052209;28;20473;-65
2023/08/29 12:39:58;;;;;;;4.20;4.10;;;;;;;;;;5052351;28;20399;-65
2023/08/29 12:42:24;;;;;;;4.27;4.00;;;;;;;;;;5052274;28;20516;-65
2023/08/29 12:44:50;;;;;;;3.53;3.43;;;;;;;;;;5052215;28;20426;-65
2023/08/29 12:47:16;;;;;;;3.77;3.53;;;;;;;;;;5051478;28;20931;-65
2023/08/29 12:49:42;;;;;;;3.87;3.50;;;;;;;;;;5055461;28;20422;-64
2023/08/29 12:52:08;;;;;;;2.83;2.67;;;;;;;;;;5055962;28;20437;-64
2023/08/29 12:54:37;;;;;;;2.87;2.77;;;;;;;;;;5055571;28;20418;-64
2023/08/29 12:57:05;;;;;;;11.57;10.13;;;;;;;;;;5056400;28;20520;-65
2023/08/29 12:59:33;;;;;;;4.20;3.57;;;;;;;;;;5056541;28;20409;-64
2023/08/29 13:01:59;;;;;;;2.90;2.83;;;;;;;;;;5056816;28;20492;-65
2023/08/29 13:04:25;;;;;;;3.10;2.90;;;;;;;;;;5056509;28;20419;-65
2023/08/29 13:06:51;;;;;;;2.90;2.90;;;;;;;;;;5056399;28;20502;-65
2023/08/29 13:09:17;;;;;;;2.73;2.70;;;;;;;;;;5056139;28;20501;-64
2023/08/29 13:11:43;;;;;;;3.50;3.30;;;;;;;;;;5056127;28;20436;-64
2023/08/29 13:14:09;;;;;;;4.63;4.30;;;;;;;;;;5056334;28;20401;-64
2023/08/29 13:16:37;;;;;;;2.93;2.77;;;;;;;;;;5055757;28;20472;-64
2023/08/29 13:19:03;;;;;;;3.00;2.90;;;;;;;;;;5056039;28;20397;-64
2023/08/29 13:21:32;;;;;;;3.63;3.43;;;;;;;;;;5055597;28;20433;-64
2023/08/29 13:23:58;;;;;;;3.17;3.00;;;;;;;;;;5055654;28;20403;-64
2023/08/29 13:26:24;;;;;;;3.50;2.80;;;;;;;;;;5055485;28;20503;-64
2023/08/29 13:28:53;;;;;;;2.63;2.53;;;;;;;;;;5055685;28;20840;-64
2023/08/29 13:31:20;;;;;;;3.07;2.90;;;;;;;;;;5055338;28;20444;-64
2023/08/29 13:33:46;;;;;;;3.23;3.03;;;;;;;;;;5055543;28;20706;-64
2023/08/29 13:36:12;;;;;;;3.20;2.97;;;;;;;;;;5054753;28;20490;-64
2023/08/29 13:38:38;;;;;;;3.83;2.67;;;;;;;;;;5055158;28;20409;-64
2023/08/29 13:41:06;;;;;;;2.60;2.50;;;;;;;;;;5055199;28;20461;-64
2023/08/29 13:43:33;;;;;;;2.30;2.30;;;;;;;;;;5055075;28;20403;-64
2023/08/29 13:45:59;;;;;;;5.57;2.77;;;;;;;;;;5055047;28;20794;-64
2023/08/29 13:48:27;;;;;;;2.70;2.50;;;;;;;;;;5055117;28;20889;-64
2023/08/29 13:50:53;;;;;;;2.70;2.60;;;;;;;;;;5054995;28;20906;-64
2023/08/29 13:53:19;;;;;;;5.80;2.63;;;;;;;;;;5054692;28;20424;-64
2023/08/29 13:55:45;;;;;;;2.77;2.77;;;;;;;;;;5054420;28;20918;-64
2023/08/29 13:58:11;;;;;;;2.83;2.73;;;;;;;;;;5054906;28;20441;-64
2023/08/29 14:00:37;;;;;;;2.60;2.60;;;;;;;;;;5054139;28;20826;-64
2023/08/29 14:03:03;;;;;;;2.70;2.60;;;;;;;;;;5055020;28;20516;-64
2023/08/29 14:05:31;;;;;;;2.90;2.80;;;;;;;;;;5054708;28;20489;-64
2023/08/29 14:07:59;;;;;;;3.80;3.13;;;;;;;;;;5054538;28;20416;-64
2023/08/29 14:10:25;;;;;;;3.03;2.73;;;;;;;;;;5054541;28;20832;-64
2023/08/29 14:12:52;;;;;;;4.17;3.20;;;;;;;;;;5054740;28;20882;-64
2023/08/29 14:15:22;;;;;;;3.03;3.03;;;;;;;;;;5054156;28;20527;-64
2023/08/29 14:17:52;;;;;;;3.47;3.37;;;;;;;;;;5054397;28;20548;-65
2023/08/29 14:20:18;;;;;;;2.90;2.80;;;;;;;;;;5053612;28;20429;-65
2023/08/29 14:22:44;;;;;;;6.10;3.30;;;;;;;;;;5054343;28;20439;-65
2023/08/29 14:25:10;;;;;;;6.97;2.47;;;;;;;;;;5054284;28;20418;-65
2023/08/29 14:27:36;;;;;;;3.23;2.77;;;;;;;;;;5052440;28;20429;-65
2023/08/29 14:30:04;;;;;;;5.17;3.13;;;;;;;;;;5054353;28;20420;-65
2023/08/29 14:32:30;;;;;;;2.70;2.60;;;;;;;;;;5054051;28;20538;-65
2023/08/29 14:34:56;;;;;;;3.30;3.20;;;;;;;;;;5054112;28;20474;-65
2023/08/29 14:37:22;;;;;;;2.90;2.70;;;;;;;;;;5054011;28;20488;-65
2023/08/29 14:39:51;;;;;;;3.80;3.50;;;;;;;;;;5052573;28;20437;-65